createdAt,value
2022-08-27T00:00:19.526Z,11.50
2022-08-27T00:02:47.513Z,9.38
2022-08-27T00:05:15.958Z,10.77
2022-08-27T00:07:43.640Z,9.15
2022-08-27T00:10:13.632Z,12.15
2022-08-27T00:12:41.380Z,10.52
2022-08-27T00:15:09.554Z,7.28
2022-08-27T00:17:38.870Z,10.00
2022-08-27T00:20:07.562Z,11.43
2022-08-27T00:22:35.575Z,10.27
2022-08-27T00:25:03.032Z,9.75
2022-08-27T00:27:30.323Z,10.57
2022-08-27T00:29:57.820Z,10.02
2022-08-27T00:32:25.252Z,9.63
2022-08-27T00:34:52.916Z,9.32
2022-08-27T00:37:20.477Z,9.95
2022-08-27T00:39:47.803Z,12.10
2022-08-27T00:42:15.552Z,8.52
2022-08-27T00:44:43.027Z,9.43
2022-08-27T00:47:16.124Z,10.43
2022-08-27T00:49:57.131Z,11.80
2022-08-27T00:52:34.231Z,8.50
2022-08-27T00:55:18.680Z,11.00
2022-08-27T00:57:47.072Z,9.18
2022-08-27T01:00:16.812Z,9.63
2022-08-27T01:02:46.408Z,9.60
2022-08-27T01:05:16.814Z,10.95
2022-08-27T01:07:46.976Z,10.20
2022-08-27T01:10:16.268Z,12.03
2022-08-27T01:12:43.948Z,10.63
2022-08-27T01:15:16.911Z,10.20
2022-08-27T01:17:48.159Z,12.43
2022-08-27T01:20:23.417Z,10.82
2022-08-27T01:22:57.268Z,11.43
2022-08-27T01:25:25.317Z,12.15
2022-08-27T01:27:53.730Z,10.80
2022-08-27T01:30:21.992Z,14.00
2022-08-27T01:32:49.639Z,12.15
2022-08-27T01:35:17.813Z,11.35
2022-08-27T01:37:46.376Z,15.40
2022-08-27T01:40:16.792Z,12.98
2022-08-27T01:42:46.233Z,11.65
2022-08-27T01:45:15.319Z,10.82
2022-08-27T01:47:43.211Z,10.80
2022-08-27T01:50:12.192Z,12.40
2022-08-27T01:52:39.597Z,16.10
2022-08-27T01:55:08.438Z,10.18
2022-08-27T01:57:36.163Z,11.95
2022-08-27T02:00:05.648Z,9.90
2022-08-27T02:02:32.998Z,10.10
2022-08-27T02:05:00.344Z,10.82
2022-08-27T02:07:27.658Z,11.52
2022-08-27T02:09:55.044Z,10.82
2022-08-27T02:12:22.482Z,13.40
2022-08-27T02:14:49.922Z,10.95
2022-08-27T02:17:17.273Z,12.30
2022-08-27T02:19:45.439Z,11.18
2022-08-27T02:22:13.011Z,10.45
2022-08-27T02:24:42.228Z,10.60
2022-08-27T02:27:09.968Z,9.07
2022-08-27T02:29:37.306Z,11.38
2022-08-27T02:32:04.815Z,14.23
2022-08-27T02:34:32.145Z,11.30
2022-08-27T02:36:59.584Z,11.85
2022-08-27T02:39:26.919Z,11.85
2022-08-27T02:41:54.269Z,9.73
2022-08-27T02:44:21.644Z,13.88
2022-08-27T02:46:51.935Z,12.60
2022-08-27T02:49:21.131Z,8.82
2022-08-27T02:51:48.471Z,10.95
2022-08-27T02:54:17.154Z,10.10
2022-08-27T02:56:44.700Z,13.00
2022-08-27T02:59:12.073Z,13.23
2022-08-27T03:01:39.730Z,10.32
2022-08-27T03:04:07.127Z,10.25
2022-08-27T03:06:34.519Z,10.10
2022-08-27T03:09:01.919Z,12.02
2022-08-27T03:11:29.413Z,9.77
2022-08-27T03:13:56.759Z,11.65
2022-08-27T03:16:24.239Z,12.68
2022-08-27T03:18:51.672Z,14.13
2022-08-27T03:21:20.440Z,13.15
2022-08-27T03:23:48.770Z,11.65
2022-08-27T03:26:16.120Z,11.73
2022-08-27T03:28:43.923Z,15.82
2022-08-27T03:31:15.481Z,12.05
2022-08-27T03:33:46.292Z,11.48
2022-08-27T03:36:13.614Z,12.98
2022-08-27T03:38:41.053Z,12.38
2022-08-27T03:41:08.405Z,14.45
2022-08-27T03:43:36.073Z,11.80
2022-08-27T03:46:05.189Z,11.60
2022-08-27T03:48:32.957Z,13.10
2022-08-27T03:51:05.469Z,10.68
2022-08-27T03:53:32.886Z,11.57
2022-08-27T03:56:00.196Z,12.80
2022-08-27T03:58:27.679Z,13.48
2022-08-27T04:00:55.066Z,12.27
2022-08-27T04:03:22.605Z,12.88
2022-08-27T04:05:54.007Z,13.95
2022-08-27T04:08:21.867Z,13.48
2022-08-27T04:10:49.309Z,12.18
2022-08-27T04:13:17.595Z,17.13
2022-08-27T04:15:45.946Z,15.32
2022-08-27T04:18:16.658Z,15.00
2022-08-27T04:20:47.763Z,16.77
2022-08-27T04:25:43.037Z,12.23
2022-08-27T04:28:10.590Z,14.38
2022-08-27T04:30:46.066Z,15.85
2022-08-27T04:33:16.909Z,11.52
2022-08-27T04:35:44.354Z,10.70
2022-08-27T04:38:11.939Z,11.18
2022-08-27T04:40:58.061Z,10.80
2022-08-27T04:43:28.376Z,12.00
2022-08-27T04:45:55.704Z,10.27
2022-08-27T04:48:23.051Z,12.32
2022-08-27T04:50:50.504Z,9.63
2022-08-27T04:53:18.591Z,12.32
2022-08-27T04:55:51.424Z,14.02
2022-08-27T04:58:20.788Z,15.32
2022-08-27T05:00:49.892Z,12.75
2022-08-27T05:03:18.319Z,12.75
2022-08-27T05:05:45.665Z,9.32
2022-08-27T05:08:13.249Z,13.48
2022-08-27T05:10:41.648Z,16.23
2022-08-27T05:13:09.399Z,12.35
2022-08-27T05:15:36.921Z,12.82
2022-08-27T05:18:04.817Z,12.15
2022-08-27T05:20:32.828Z,14.48
2022-08-27T05:23:00.158Z,12.45
2022-08-27T05:25:27.820Z,11.82
2022-08-27T05:27:55.334Z,11.18
2022-08-27T05:30:22.692Z,11.25
2022-08-27T05:32:50.069Z,13.32
2022-08-27T05:35:17.960Z,10.70
2022-08-27T05:37:45.299Z,12.00
2022-08-27T05:40:12.840Z,13.27
2022-08-27T05:42:43.581Z,12.43
2022-08-27T05:45:17.290Z,14.90
2022-08-27T05:47:44.595Z,12.23
2022-08-27T05:50:12.332Z,12.10
2022-08-27T05:52:39.749Z,14.35
2022-08-27T05:55:07.351Z,10.00
2022-08-27T05:57:34.708Z,11.00
2022-08-27T06:00:20.760Z,14.80
2022-08-27T06:02:48.126Z,12.95
2022-08-27T06:05:15.628Z,11.65
2022-08-27T06:07:43.020Z,11.23
2022-08-27T06:10:10.584Z,11.32
2022-08-27T06:12:38.450Z,12.35
2022-08-27T06:15:06.095Z,12.00
2022-08-27T06:17:33.438Z,14.70
2022-08-27T06:20:00.812Z,11.32
2022-08-27T06:22:28.200Z,10.85
2022-08-27T06:24:55.602Z,15.50
2022-08-27T06:27:22.980Z,11.45
2022-08-27T06:29:50.400Z,13.82
2022-08-27T06:32:17.800Z,16.50
2022-08-27T06:34:45.197Z,10.70
2022-08-27T06:37:12.501Z,15.68
2022-08-27T06:39:40.554Z,11.20
2022-08-27T06:42:11.483Z,15.65
2022-08-27T06:44:38.886Z,13.65
2022-08-27T06:47:06.241Z,11.43
2022-08-27T06:49:33.755Z,15.48
2022-08-27T06:52:01.445Z,16.83
2022-08-27T06:54:28.891Z,13.38
2022-08-27T06:56:58.701Z,14.73
2022-08-27T06:59:26.611Z,12.57
2022-08-27T07:01:54.476Z,10.15
2022-08-27T07:04:25.366Z,10.82
2022-08-27T07:06:59.798Z,13.50
2022-08-27T07:09:27.240Z,11.80
2022-08-27T07:11:55.155Z,12.73
2022-08-27T07:14:22.463Z,10.35
2022-08-27T07:16:51.411Z,11.30
2022-08-27T07:19:19.937Z,9.98
2022-08-27T07:21:48.879Z,14.02
2022-08-27T07:24:16.193Z,10.35
2022-08-27T07:26:44.503Z,10.77
2022-08-27T07:29:13.250Z,10.73
2022-08-27T07:31:40.617Z,7.50
2022-08-27T07:34:08.661Z,9.98
2022-08-27T07:36:37.891Z,7.30
2022-08-27T07:39:06.207Z,10.50
2022-08-27T07:41:54.299Z,11.32
2022-08-27T07:44:34.389Z,8.25
2022-08-27T07:47:03.021Z,6.30
2022-08-27T07:49:31.601Z,12.43
2022-08-27T07:51:59.080Z,8.23
2022-08-27T07:54:26.679Z,7.85
2022-08-27T07:56:56.030Z,9.13
2022-08-27T07:59:24.620Z,10.30
2022-08-27T08:01:52.511Z,7.18
2022-08-27T08:04:20.602Z,9.27
2022-08-27T08:06:48.161Z,8.15
2022-08-27T08:09:15.634Z,8.02
2022-08-27T08:11:43.004Z,8.32
2022-08-27T08:14:10.381Z,8.60
2022-08-27T08:16:37.831Z,9.13
2022-08-27T08:19:05.198Z,6.75
2022-08-27T08:21:32.556Z,7.10
2022-08-27T08:24:00.427Z,10.07
2022-08-27T08:26:27.774Z,8.75
2022-08-27T08:28:55.359Z,6.82
2022-08-27T08:31:24.293Z,10.73
2022-08-27T08:33:52.303Z,8.98
2022-08-27T08:36:20.079Z,6.50
2022-08-27T08:38:48.446Z,8.65
2022-08-27T08:41:36.055Z,8.73
2022-08-27T08:44:08.746Z,6.88
2022-08-27T08:46:41.986Z,6.22
2022-08-27T08:49:29.586Z,6.20
2022-08-27T08:51:58.488Z,11.82
2022-08-27T08:54:30.720Z,8.40
2022-08-27T08:57:00.444Z,9.50
2022-08-27T08:59:32.967Z,7.32
2022-08-27T09:02:00.547Z,8.25
2022-08-27T09:04:28.380Z,7.65
2022-08-27T09:07:03.608Z,6.00
2022-08-27T09:09:33.767Z,9.70
2022-08-27T09:14:35.218Z,7.20
2022-08-27T09:17:11.301Z,10.40
2022-08-27T09:19:39.259Z,7.75
2022-08-27T09:22:15.419Z,9.85
2022-08-27T09:24:59.803Z,6.78
2022-08-27T09:27:27.292Z,10.30
2022-08-27T09:29:56.403Z,8.32
2022-08-27T09:32:32.443Z,8.30
2022-08-27T09:35:01.268Z,6.97
2022-08-27T09:37:34.153Z,6.38
2022-08-27T09:40:26.911Z,6.75
2022-08-27T09:42:56.816Z,6.78
2022-08-27T09:47:51.440Z,6.40
2022-08-27T09:50:20.904Z,9.25
2022-08-27T09:52:59.327Z,8.65
2022-08-27T09:55:35.506Z,6.72
2022-08-27T09:58:04.832Z,6.22
2022-08-27T10:00:39.972Z,8.10
2022-08-27T10:03:08.437Z,8.35
2022-08-27T10:05:40.588Z,7.00
2022-08-27T10:08:11.163Z,7.05
2022-08-27T10:10:54.679Z,7.97
2022-08-27T10:13:31.919Z,9.80
2022-08-27T10:15:59.228Z,6.05
2022-08-27T10:18:46.840Z,9.32
2022-08-27T10:21:17.056Z,5.20
2022-08-27T10:24:11.220Z,6.70
2022-08-27T10:26:41.396Z,6.15
2022-08-27T10:29:27.100Z,5.45
2022-08-27T10:31:54.540Z,12.85
2022-08-27T10:34:29.941Z,9.27
2022-08-27T10:36:57.239Z,7.05
2022-08-27T10:39:33.776Z,8.63
2022-08-27T10:42:30.651Z,12.95
2022-08-27T10:45:10.837Z,7.45
2022-08-27T10:48:02.979Z,6.93
2022-08-27T10:50:46.289Z,8.55
2022-08-27T10:53:16.775Z,10.98
2022-08-27T10:55:51.407Z,5.72
2022-08-27T10:58:21.458Z,8.65
2022-08-27T11:00:57.586Z,9.13
2022-08-27T11:03:32.242Z,7.43
2022-08-27T11:06:02.872Z,7.07
2022-08-27T11:08:37.968Z,7.03
2022-08-27T11:11:57.213Z,8.07
2022-08-27T11:14:01.412Z,9.38
2022-08-27T11:16:40.350Z,6.32
2022-08-27T11:19:17.559Z,7.55
2022-08-27T11:21:47.707Z,10.13
2022-08-27T11:24:35.180Z,12.35
2022-08-27T11:27:04.437Z,9.82
2022-08-27T11:29:37.672Z,10.90
2022-08-27T11:32:11.057Z,9.35
2022-08-27T11:34:42.926Z,8.73
2022-08-27T11:37:25.892Z,12.43
2022-08-27T11:40:20.100Z,10.52
2022-08-27T11:42:51.938Z,9.70
2022-08-27T11:45:22.266Z,9.75
2022-08-27T11:50:19.503Z,13.68
2022-08-27T11:52:58.409Z,10.32
2022-08-27T11:55:36.867Z,11.25
2022-08-27T11:58:11.914Z,10.50
2022-08-27T12:00:43.786Z,12.68
2022-08-27T12:03:24.583Z,10.77
2022-08-27T12:05:55.084Z,12.27
2022-08-27T12:10:56.321Z,7.82
2022-08-27T12:13:42.251Z,7.82
2022-08-27T12:16:12.557Z,14.63
2022-08-27T12:18:58.707Z,12.38
2022-08-27T12:21:28.892Z,14.20
2022-08-27T12:24:02.298Z,9.10
2022-08-27T12:26:31.701Z,10.32
2022-08-27T12:29:18.021Z,8.77
2022-08-27T12:31:48.375Z,11.38
2022-08-27T12:34:17.612Z,13.60
2022-08-27T12:36:50.920Z,14.55
2022-08-27T12:39:24.599Z,15.50
2022-08-27T12:41:51.934Z,10.82
2022-08-27T12:44:25.715Z,9.20
2022-08-27T12:47:00.037Z,9.38
2022-08-27T12:49:37.928Z,11.63
2022-08-27T12:52:15.334Z,10.27
2022-08-27T12:55:09.634Z,12.75
2022-08-27T12:57:46.219Z,9.75
2022-08-27T13:00:15.516Z,10.95
2022-08-27T13:02:45.883Z,9.82
2022-08-27T13:05:13.453Z,12.63
2022-08-27T13:07:42.325Z,9.82
2022-08-27T13:10:13.375Z,11.77
2022-08-27T13:12:40.879Z,9.93
2022-08-27T13:15:10.386Z,10.60
2022-08-27T13:17:43.507Z,9.93
2022-08-27T13:20:27.780Z,12.95
2022-08-27T13:22:55.363Z,12.88
2022-08-27T13:25:31.581Z,11.60
2022-08-27T13:28:08.093Z,14.50
2022-08-27T13:30:39.888Z,9.70
2022-08-27T13:33:08.520Z,9.23
2022-08-27T13:35:37.666Z,11.60
2022-08-27T13:38:05.735Z,11.23
2022-08-27T13:40:36.692Z,14.35
2022-08-27T13:43:08.648Z,10.93
2022-08-27T13:45:36.743Z,14.93
2022-08-27T13:48:04.605Z,12.95
2022-08-27T13:50:34.180Z,12.90
2022-08-27T13:53:27.521Z,9.05
2022-08-27T13:55:55.916Z,9.60
2022-08-27T13:58:26.313Z,10.10
2022-08-27T14:00:54.351Z,9.55
2022-08-27T14:03:33.583Z,10.88
2022-08-27T14:06:01.849Z,9.75
2022-08-27T14:08:31.509Z,12.05
2022-08-27T14:11:01.002Z,10.07
2022-08-27T14:13:30.777Z,10.52
2022-08-27T14:16:00.713Z,12.50
2022-08-27T14:18:55.140Z,11.82
2022-08-27T14:21:18.683Z,10.23
2022-08-27T14:23:46.068Z,11.48
2022-08-27T14:26:14.116Z,11.25
2022-08-27T14:28:42.728Z,9.73
2022-08-27T14:31:12.711Z,9.85
2022-08-27T14:33:40.357Z,11.85
2022-08-27T14:36:08.299Z,9.27
2022-08-27T14:38:37.479Z,10.68
2022-08-27T14:41:07.111Z,13.05
2022-08-27T14:43:35.195Z,13.60
2022-08-27T14:46:03.157Z,11.80
2022-08-27T14:48:32.250Z,12.38
2022-08-27T14:51:02.376Z,13.63
2022-08-27T14:53:29.778Z,10.73
2022-08-27T14:55:59.440Z,11.80
2022-08-27T14:58:26.790Z,11.60
2022-08-27T15:00:56.330Z,12.90
2022-08-27T15:03:26.964Z,12.27
2022-08-27T15:08:27.442Z,13.95
2022-08-27T15:10:56.668Z,13.75
2022-08-27T15:13:24.084Z,13.02
2022-08-27T15:15:52.315Z,10.70
2022-08-27T15:18:20.179Z,12.50
2022-08-27T15:20:48.672Z,17.85
2022-08-27T15:23:16.562Z,11.43
2022-08-27T15:25:45.457Z,11.75
2022-08-27T15:28:13.142Z,15.05
2022-08-27T15:30:40.679Z,9.32
2022-08-27T15:33:08.136Z,15.43
2022-08-27T15:35:35.594Z,10.35
2022-08-27T15:38:03.086Z,10.57
2022-08-27T15:40:33.147Z,12.68
2022-08-27T15:43:02.483Z,11.50
2022-08-27T15:45:30.140Z,14.35
2022-08-27T15:47:58.089Z,10.82
2022-08-27T15:50:25.711Z,10.95
2022-08-27T15:52:55.629Z,14.30
2022-08-27T15:55:24.966Z,13.38
2022-08-27T15:57:52.413Z,10.35
2022-08-27T16:00:22.066Z,11.77
2022-08-27T16:02:49.849Z,10.10
2022-08-27T16:05:17.618Z,10.18
2022-08-27T16:07:45.354Z,15.38
2022-08-27T16:10:13.186Z,12.50
2022-08-27T16:12:40.649Z,11.27
2022-08-27T16:15:08.727Z,14.43
2022-08-27T16:17:36.350Z,12.57
2022-08-27T16:20:04.486Z,15.30
2022-08-27T16:22:31.802Z,13.93
2022-08-27T16:24:59.150Z,12.43
2022-08-27T16:27:26.489Z,12.45
2022-08-27T16:29:55.356Z,14.55
2022-08-27T16:32:23.380Z,11.98
2022-08-27T16:34:55.907Z,11.27
2022-08-27T16:37:24.354Z,14.02
2022-08-27T16:39:51.844Z,11.77
2022-08-27T16:42:19.259Z,14.35
2022-08-27T16:44:46.602Z,15.38
2022-08-27T16:47:13.943Z,11.27
2022-08-27T16:49:59.834Z,10.48
2022-08-27T16:52:27.192Z,14.00
2022-08-27T16:54:55.052Z,14.20
2022-08-27T16:57:22.364Z,13.30
2022-08-27T16:59:49.709Z,11.27
2022-08-27T17:02:21.185Z,11.82
2022-08-27T17:05:07.186Z,15.65
2022-08-27T17:07:41.255Z,13.07
2022-08-27T17:10:13.714Z,14.25
2022-08-27T17:12:41.375Z,12.98
2022-08-27T17:15:09.738Z,14.48
2022-08-27T17:17:39.218Z,12.02
2022-08-27T17:20:08.200Z,13.38
2022-08-27T17:22:35.797Z,10.20
2022-08-27T17:25:03.195Z,13.85
2022-08-27T17:27:30.499Z,11.70
2022-08-27T17:29:57.786Z,15.68
2022-08-27T17:32:25.162Z,12.57
2022-08-27T17:34:52.510Z,15.68
2022-08-27T17:37:19.799Z,14.43
2022-08-27T17:39:47.230Z,15.13
2022-08-27T17:42:14.761Z,16.38
2022-08-27T17:44:42.051Z,14.50
2022-08-27T17:47:09.892Z,21.08
2022-08-27T17:49:39.213Z,19.30
2022-08-27T17:52:10.586Z,19.50
2022-08-27T17:54:39.698Z,21.98
2022-08-27T17:57:16.003Z,15.85
2022-08-27T17:59:43.494Z,17.45
2022-08-27T18:02:11.259Z,15.07
2022-08-27T18:04:38.630Z,16.50
2022-08-27T18:07:06.029Z,20.33
2022-08-27T18:09:33.329Z,18.17
2022-08-27T18:12:00.750Z,21.55
2022-08-27T18:14:28.053Z,19.30
2022-08-27T18:16:55.458Z,19.60
2022-08-27T18:19:22.926Z,17.80
2022-08-27T18:21:50.567Z,16.02
2022-08-27T18:24:18.168Z,18.58
2022-08-27T18:26:45.940Z,20.77
2022-08-27T18:29:14.333Z,16.80
2022-08-27T18:31:41.833Z,15.75
2022-08-27T18:34:09.244Z,17.83
2022-08-27T18:36:36.578Z,17.17
2022-08-27T18:39:03.990Z,19.42
2022-08-27T18:41:31.756Z,17.40
2022-08-27T18:44:00.018Z,19.42
2022-08-27T18:46:27.584Z,19.60
2022-08-27T18:48:54.984Z,22.88
2022-08-27T18:51:22.686Z,19.80
2022-08-27T18:53:50.044Z,16.80
2022-08-27T18:56:18.930Z,14.90
2022-08-27T18:58:46.430Z,18.88
2022-08-27T19:01:15.693Z,17.83
2022-08-27T19:03:45.136Z,52.65
2022-08-27T19:06:12.501Z,18.30
2022-08-27T19:08:40.947Z,22.27
2022-08-27T19:11:08.268Z,19.58
2022-08-27T19:13:35.912Z,18.63
2022-08-27T19:16:05.028Z,19.38
2022-08-27T19:18:34.785Z,20.50
2022-08-27T19:21:02.295Z,16.13
2022-08-27T19:23:29.608Z,19.88
2022-08-27T19:25:58.333Z,23.17
2022-08-27T19:28:27.967Z,21.08
2022-08-27T19:30:55.551Z,21.20
2022-08-27T19:33:22.929Z,26.33
2022-08-27T19:35:50.282Z,19.58
2022-08-27T19:38:17.724Z,24.13
2022-08-27T19:40:45.025Z,22.02
2022-08-27T19:43:12.363Z,20.23
2022-08-27T19:45:40.354Z,22.35
2022-08-27T19:48:08.712Z,24.90
2022-08-27T19:50:36.124Z,18.15
2022-08-27T19:53:03.430Z,19.65
2022-08-27T19:55:30.753Z,22.10
2022-08-27T19:57:58.079Z,16.52
2022-08-27T20:00:27.786Z,20.70
2022-08-27T20:02:55.629Z,18.23
2022-08-27T20:05:23.085Z,22.60
2022-08-27T20:07:51.898Z,22.42
2022-08-27T20:10:21.687Z,23.42
2022-08-27T20:12:51.204Z,18.95
2022-08-27T20:15:21.066Z,25.13
2022-08-27T20:17:51.874Z,25.80
2022-08-27T20:20:21.309Z,22.00
2022-08-27T20:22:48.654Z,18.10
2022-08-27T20:25:15.932Z,23.35
2022-08-27T20:27:43.294Z,20.35
2022-08-27T20:30:12.317Z,18.55
2022-08-27T20:32:39.703Z,19.27
2022-08-27T20:35:07.862Z,22.05
2022-08-27T20:37:40.089Z,20.55
2022-08-27T20:40:11.140Z,22.17
2022-08-27T20:42:38.745Z,20.25
2022-08-27T20:45:09.862Z,24.83
2022-08-27T20:47:39.772Z,22.27
2022-08-27T20:50:07.312Z,24.85
2022-08-27T20:52:35.762Z,24.70
2022-08-27T20:55:03.411Z,24.20
2022-08-27T20:57:30.912Z,20.60
2022-08-27T21:00:17.133Z,21.05
2022-08-27T21:02:44.425Z,19.88
2022-08-27T21:05:13.114Z,25.13
2022-08-27T21:07:40.562Z,21.75
2022-08-27T21:10:08.217Z,21.00
2022-08-27T21:12:35.916Z,23.52
2022-08-27T21:15:04.337Z,20.52
2022-08-27T21:17:31.841Z,20.35
2022-08-27T21:19:59.253Z,19.35
2022-08-27T21:22:26.584Z,25.77
2022-08-27T21:24:53.905Z,23.40
2022-08-27T21:27:21.926Z,23.77
2022-08-27T21:29:49.872Z,23.83
2022-08-27T21:32:17.743Z,23.30
2022-08-27T21:34:45.108Z,20.48
2022-08-27T21:37:13.907Z,22.98
2022-08-27T21:39:42.452Z,22.05
2022-08-27T21:42:10.439Z,21.30
2022-08-27T21:44:38.258Z,22.02
2022-08-27T21:47:06.071Z,21.67
2022-08-27T21:49:33.814Z,22.40
2022-08-27T21:52:03.619Z,21.42
2022-08-27T21:54:35.215Z,20.80
2022-08-27T21:57:04.436Z,25.90
2022-08-27T21:59:36.496Z,19.15
2022-08-27T22:02:18.114Z,20.75
2022-08-27T22:04:51.515Z,23.00
2022-08-27T22:07:19.171Z,23.65
2022-08-27T22:09:46.711Z,21.55
2022-08-27T22:12:14.208Z,28.35
2022-08-27T22:14:41.497Z,29.15
2022-08-27T22:17:08.832Z,21.33
2022-08-27T22:19:36.152Z,23.27
2022-08-27T22:22:03.493Z,23.63
2022-08-27T22:24:30.800Z,21.92
2022-08-27T22:26:58.124Z,26.73
2022-08-27T22:29:25.447Z,25.50
2022-08-27T22:31:52.956Z,21.75
2022-08-27T22:34:21.346Z,20.23
2022-08-27T22:36:49.934Z,21.88
2022-08-27T22:39:17.390Z,22.98
2022-08-27T22:41:48.134Z,24.30
2022-08-27T22:44:16.199Z,22.38
2022-08-27T22:46:43.645Z,23.77
2022-08-27T22:49:11.054Z,25.50
2022-08-27T22:51:38.395Z,24.17
2022-08-27T22:54:05.739Z,23.75
2022-08-27T22:56:33.113Z,25.15
2022-08-27T22:59:00.593Z,24.42
2022-08-27T23:01:29.280Z,22.10
2022-08-27T23:03:57.838Z,23.60
2022-08-27T23:06:25.256Z,26.88
2022-08-27T23:08:53.199Z,22.88
2022-08-27T23:11:21.000Z,24.70
2022-08-27T23:13:49.288Z,21.65
2022-08-27T23:16:16.930Z,21.50
2022-08-27T23:18:45.778Z,31.67
2022-08-27T23:21:14.168Z,23.95
2022-08-27T23:23:41.485Z,22.42
2022-08-27T23:26:27.505Z,20.15
2022-08-27T23:28:55.004Z,22.65
2022-08-27T23:31:22.679Z,21.95
2022-08-27T23:33:53.993Z,22.38
2022-08-27T23:36:21.948Z,20.50
2022-08-27T23:38:50.270Z,20.95
2022-08-27T23:41:17.573Z,22.75
2022-08-27T23:43:45.632Z,26.08
2022-08-27T23:46:13.569Z,22.83
2022-08-27T23:48:41.044Z,23.65
2022-08-27T23:51:09.467Z,27.08
2022-08-27T23:53:37.771Z,25.17
2022-08-27T23:56:05.164Z,18.90
2022-08-27T23:58:32.847Z,21.52
